Aviation Digital Data Service (ADDS)

Output produced by METARs form (1711 UTC 26 July 2014)
found at http://aviationweather.gov/adds/metars/
 
KBAF 261611Z 2616/2712 22008KT P6SM BKN060 BKN200 
     FM261800 22010G16KT P6SM BKN060 BKN250 
     FM270000 20005KT P6SM SCT250 
     FM270900 19005KT 3SM BR BKN015